Latest Weather Observations for Rocky Gully South

IDW60801

Issued at 11:02 pm WST Monday 27 April 2015 (issued every 30 minutes, with the page automatically refreshed every 10 minutes)

About weather observations | Map of weather stations | Latest weather observations for WA | Other Formats
Station Details ID: 009964 Name: ROCKY GULLY Lat: -34.57 Lon: 117.01 Height: 250.0 m
Data from the previous 72 hours. | See also: Recent months at Rocky Gully South
Date/Time
WST
Temp
°C
App
Temp
°C
Dew
Point
Rel
Hum
%
Delta-T
°C
Wind Press
QNH
hPa
Press
MSL
hPa
Rain
since 9 am
mm
Dir
 
Spd
km/h
Gust
km/h
Spd
kts
Gust
kts
27/11:00pm 13.2 10.5 9.1 76 2.1 NE 13 24 7 13 - - 0.0
27/10:30pm 12.8 10.6 7.7 71 2.5 NE 9 15 5 8 - - 0.0
27/10:00pm 13.3 11.0 7.5 68 2.9 NE 9 15 5 8 - - 0.0
27/09:30pm 13.4 10.7 7.4 67 3.0 ENE 11 19 6 10 - - 0.0
27/09:00pm 12.9 10.9 6.9 67 2.9 E 7 13 4 7 - - 0.0
27/08:30pm 13.2 10.8 5.4 59 3.7 E 7 13 4 7 - - 0.0
27/08:00pm 13.7 10.7 4.3 53 4.4 E 9 13 5 7 - - 0.0
27/07:30pm 14.5 12.1 4.5 51 4.7 NE 6 9 3 5 - - 0.0
27/07:00pm 15.4 12.9 4.5 48 5.2 ENE 7 11 4 6 - - 0.0
27/06:30pm 15.1 12.8 4.8 50 4.9 NE 6 7 3 4 - - 0.0
27/06:00pm 15.7 13.4 4.7 48 5.2 ENE 6 7 3 4 - - 0.0
27/05:30pm 17.4 15.1 4.7 43 6.1 ENE 6 9 3 5 - - 0.0
27/05:00pm 19.0 16.4 4.4 38 7.1 NE 7 15 4 8 - - 0.0
27/04:30pm 19.8 16.8 4.3 36 7.5 NE 9 17 5 9 - - 0.0
27/04:00pm 20.2 16.3 3.4 33 8.1 NNE 13 20 7 11 - - 0.0
27/03:30pm 20.4 16.2 3.6 33 8.1 NNE 15 28 8 15 - - 0.0
27/03:00pm 20.7 16.4 3.4 32 8.3 NNE 15 26 8 14 - - 0.0
27/02:30pm 20.6 16.9 4.6 35 7.9 ENE 13 20 7 11 - - 0.0
27/02:00pm 20.7 17.0 4.3 34 8.0 NNE 13 30 7 16 - - 0.0
27/01:30pm 20.3 15.9 4.8 36 7.6 NNE 17 28 9 15 - - 0.0
27/01:00pm 20.3 17.0 6.3 40 7.1 NE 13 24 7 13 - - 0.0
27/12:30pm 19.5 16.2 4.4 37 7.3 NE 11 28 6 15 - - 0.0
27/12:00pm 19.6 16.1 7.0 44 6.5 NNE 15 28 8 15 - - 0.0
27/11:30am 19.1 15.4 6.2 43 6.5 NNE 15 26 8 14 - - 0.0
27/11:00am 18.5 15.1 7.6 49 5.6 NNE 15 26 8 14 - - 0.0
27/10:30am 17.3 14.3 7.6 53 5.0 NNE 13 22 7 12 - - 0.0
27/10:00am 16.4 13.4 7.9 57 4.3 NNE 13 24 7 13 - - 0.0
27/09:30am 15.0 12.2 8.5 65 3.3 N 13 22 7 12 - - 0.0
27/09:00am 14.2 12.0 9.4 73 2.5 NNE 11 19 6 10 - - 0.0
27/08:30am 12.8 10.6 9.3 79 1.8 NNE 11 20 6 11 - - 0.0
27/08:00am 11.5 9.2 9.1 85 1.2 NNE 11 20 6 11 - - 0.0
27/07:30am 10.6 8.3 8.9 89 0.9 NNE 11 17 6 9 - - 0.0
27/07:00am 10.2 8.2 8.6 90 0.8 NNE 9 17 5 9 - - 0.0
27/06:30am 9.9 8.2 8.5 91 0.7 NE 7 15 4 8 - - 0.0
27/06:00am 9.7 8.0 8.5 92 0.6 NE 7 11 4 6 - - 0.0
27/05:30am 9.6 8.0 8.2 91 0.7 NNE 6 11 3 6 - - 0.0
27/05:00am 10.0 8.4 8.6 91 0.7 NNE 7 13 4 7 - - 0.0
27/04:30am 10.3 8.7 8.9 91 0.7 NE 7 13 4 7 - - 0.0
27/04:00am 10.3 8.7 8.9 91 0.7 NE 7 13 4 7 - - 0.0
27/03:30am 10.1 8.1 8.5 90 0.8 NNE 9 15 5 8 - - 0.0
27/03:00am 10.3 8.9 8.7 90 0.8 NE 6 11 3 6 - - 0.0
27/02:30am 10.2 8.6 8.6 90 0.8 NNE 7 15 4 8 - - 0.0
27/02:00am 10.4 8.8 8.8 90 0.8 NE 7 11 4 6 - - 0.0
27/01:30am 10.4 9.0 8.8 90 0.8 NE 6 11 3 6 - - 0.0
27/01:00am 9.9 8.4 8.3 90 0.8 NE 6 9 3 5 - - 0.0
27/12:30am 10.0 8.9 8.3 89 0.8 ENE 4 7 2 4 - - 0.0
27/12:00am 10.5 9.0 8.6 88 0.9 ENE 6 11 3 6 - - 0.0
 
Date/Time
WST
Temp
°C
App
Temp
°C
Dew
Point
Rel
Hum
%
Delta-T
°C
Wind Press
QNH
hPa
Press
MSL
hPa
Rain
since 9 am
mm
Dir
 
Spd
km/h
Gust
km/h
Spd
kts
Gust
kts
26/11:30pm 10.8 9.4 8.7 87 1.0 E 6 13 3 7 - - 0.0
26/11:00pm 11.1 9.5 8.7 85 1.2 ENE 7 11 4 6 - - 0.0
26/10:30pm 11.6 10.1 9.0 84 1.3 ENE 7 13 4 7 - - 0.0
26/10:00pm 11.6 10.0 8.8 83 1.4 E 7 17 4 9 - - 0.0
26/09:30pm 11.4 9.9 8.3 81 1.5 E 6 11 3 6 - - 0.0
26/09:00pm 11.7 10.0 8.2 79 1.7 E 7 13 4 7 - - 0.0
26/08:30pm 11.9 10.1 8.0 77 1.9 ESE 7 13 4 7 - - 0.0
26/08:00pm 12.5 10.4 8.2 75 2.2 E 9 13 5 7 - - 0.0
26/07:30pm 13.1 11.1 8.6 74 2.3 ESE 9 17 5 9 - - 0.0
26/07:00pm 13.7 11.8 9.0 73 2.4 ESE 9 17 5 9 - - 0.0
26/06:30pm 14.3 12.0 8.9 70 2.8 ESE 11 17 6 9 - - 0.0
26/06:00pm 14.8 12.7 8.1 64 3.4 SE 9 15 5 8 - - 0.0
26/05:30pm 15.8 13.7 6.8 55 4.5 ESE 7 11 4 6 - - 0.0
26/05:00pm 17.2 14.7 6.7 50 5.3 E 9 15 5 8 - - 0.0
26/04:30pm 18.2 15.5 5.4 43 6.3 E 9 15 5 8 - - 0.0
26/04:00pm 18.6 15.9 5.5 42 6.5 ESE 9 17 5 9 - - 0.0
26/03:30pm 19.3 16.1 5.0 39 7.0 E 11 17 6 9 - - 0.0
26/03:00pm 18.0 15.4 4.2 40 6.6 ESE 7 11 4 6 - - 0.0
26/02:30pm 19.0 16.1 4.4 38 7.1 SE 9 17 5 9 - - 0.0
26/02:00pm 19.0 16.3 5.8 42 6.6 ENE 9 22 5 12 - - 0.0
26/01:30pm 17.7 15.4 5.9 46 5.8 ENE 7 13 4 7 - - 0.0
26/01:00pm 17.6 15.3 5.5 45 5.9 NNE 7 11 4 6 - - 0.0
26/12:30pm 18.1 15.2 6.3 46 5.9 NE 11 20 6 11 - - 0.0
26/12:00pm 18.2 15.7 6.4 46 5.9 NNE 9 15 5 8 - - 0.0
26/11:30am 17.1 14.2 6.6 50 5.2 E 11 19 6 10 - - 0.0
26/11:00am 17.0 14.4 7.9 55 4.7 NE 11 19 6 10 - - 0.0
26/10:30am 16.0 13.2 8.5 61 3.9 NNE 13 20 7 11 - - 0.0
26/10:00am 14.9 12.1 8.4 65 3.3 NE 13 24 7 13 - - 0.0
26/09:30am 13.8 11.2 7.8 67 3.0 NNE 11 24 6 13 - - 0.0
26/09:00am 13.2 10.8 8.5 73 2.4 NNE 11 20 6 11 - - 0.0
26/08:30am 12.2 9.8 8.5 78 1.9 NNE 11 17 6 9 - - 0.0
26/08:00am 10.9 8.8 8.3 84 1.3 NNE 9 15 5 8 - - 0.0
26/07:30am 9.4 7.6 7.8 90 0.8 NE 7 15 4 8 - - 0.0
26/07:00am 8.8 6.9 7.4 91 0.7 NE 7 13 4 7 - - 0.0
26/06:30am 8.4 6.4 7.2 92 0.6 ENE 7 13 4 7 - - 0.0
26/06:00am 7.5 5.3 6.1 91 0.6 NE 7 9 4 5 - - 0.0
26/05:30am 6.9 4.7 5.5 91 0.6 ENE 6 7 3 4 - - 0.0
26/05:00am 7.2 4.9 5.8 91 0.6 ENE 7 13 4 7 - - 0.0
26/04:30am 6.4 4.1 4.9 90 0.7 NE 6 7 3 4 - - 0.0
26/04:00am 5.9 3.5 4.4 90 0.7 NE 6 7 3 4 - - 0.0
26/03:30am 5.6 3.1 3.8 88 0.8 NE 6 9 3 5 - - 0.0
26/03:00am 6.3 5.1 4.5 88 0.8 CALM 0 2 0 1 - - 0.0
26/02:30am 5.7 4.3 3.4 85 1.0 CALM 0 6 0 3 - - 0.0
26/02:00am 7.8 5.6 5.3 84 1.1 E 6 9 3 5 - - 0.0
26/01:30am 8.3 6.2 5.6 83 1.2 E 6 7 3 4 - - 0.0
26/01:00am 8.8 6.6 6.1 83 1.3 E 7 11 4 6 - - 0.0
26/12:30am 8.7 6.5 6.2 84 1.2 E 7 9 4 5 - - 0.0
26/12:00am 8.6 6.4 6.4 86 1.0 E 7 9 4 5 - - 0.0
 
Date/Time
WST
Temp
°C
App
Temp
°C
Dew
Point
Rel
Hum
%
Delta-T
°C
Wind Press
QNH
hPa
Press
MSL
hPa
Rain
since 9 am
mm
Dir
 
Spd
km/h
Gust
km/h
Spd
kts
Gust
kts
25/11:30pm 8.5 6.5 6.3 86 1.0 E 6 9 3 5 - - 0.0
25/11:00pm 9.0 7.1 6.8 86 1.0 E 6 9 3 5 - - 0.0
25/10:30pm 9.2 7.4 7.0 86 1.0 E 6 9 3 5 - - 0.0
25/10:00pm 9.3 7.4 6.9 85 1.1 E 6 9 3 5 - - 0.0
25/09:30pm 9.2 7.3 6.6 84 1.2 E 6 9 3 5 - - 0.0
25/09:00pm 9.4 7.5 6.7 83 1.3 ESE 6 9 3 5 - - 0.0
25/08:30pm 9.8 8.3 6.7 81 1.5 ESE 4 6 2 3 - - 0.0
25/08:00pm 10.3 8.2 6.8 79 1.7 SE 7 11 4 6 - - 0.0
25/07:30pm 11.0 9.0 6.9 76 2.0 SE 7 11 4 6 - - 0.0
25/07:00pm 11.9 9.6 7.4 74 2.2 SE 9 15 5 8 - - 0.0
25/06:30pm 12.0 10.1 7.5 74 2.2 SE 7 13 4 7 - - 0.0
25/06:00pm 12.8 10.9 7.5 70 2.6 SE 7 11 4 6 - - 0.0
25/05:30pm 13.8 11.3 8.0 68 2.9 SE 11 17 6 9 - - 0.0
25/05:00pm 14.1 12.6 8.3 68 2.9 SE 6 11 3 6 - - 0.0
25/04:30pm 15.2 13.5 7.5 60 3.9 E 6 9 3 5 - - 0.0
25/04:00pm 15.8 14.0 7.8 59 4.1 E 7 13 4 7 - - 0.0
25/03:30pm 15.6 14.1 6.9 56 4.3 E 4 9 2 5 - - 0.0
25/03:00pm 15.9 14.0 6.9 55 4.5 E 6 9 3 5 - - 0.0
25/02:30pm 16.2 14.3 6.9 54 4.6 ENE 6 9 3 5 - - 0.0
25/02:00pm 15.8 13.7 6.0 52 4.8 NE 6 11 3 6 - - 0.0
25/01:30pm 15.7 13.1 6.2 53 4.7 ESE 9 15 5 8 - - 0.0
25/01:00pm 15.7 12.6 5.6 51 4.9 N 11 17 6 9 - - 0.0
25/12:30pm 15.5 13.4 6.5 55 4.4 NE 7 13 4 7 - - 0.0
25/12:00pm 16.2 13.5 7.4 56 4.4 NNE 11 20 6 11 - - 0.0
25/11:30am 15.6 12.9 7.4 58 4.1 NNE 11 19 6 10 - - 0.0
25/11:00am 15.1 13.4 8.3 64 3.5 E 7 13 4 7 - - 0.0
25/10:30am 13.7 11.5 7.7 67 3.0 NE 9 13 5 7 - - 0.0
25/10:00am 14.0 12.3 8.4 69 2.8 NE 7 15 4 8 - - 0.0
25/09:30am 13.4 11.4 8.7 73 2.4 NE 9 15 5 8 - - 0.0
25/09:00am 11.9 11.1 9.5 85 1.2 ENE 4 7 2 4 - - 0.0
25/08:30am 10.6 9.3 9.2 91 0.7 NE 6 9 3 5 - - 0.0
25/08:00am 9.3 8.5 8.2 93 0.5 NE 2 6 1 3 - - 0.0
25/07:30am 7.7 5.8 6.6 93 0.5 NE 6 7 3 4 - - 0.0
25/07:00am 8.0 6.1 6.9 93 0.5 ESE 6 9 3 5 - - 0.0
25/06:30am 7.0 6.0 5.8 92 0.5 CALM 0 6 0 3 - - 0.0
25/06:00am 7.1 6.2 5.9 92 0.5 CALM 0 0 0 0 - - 0.0
25/05:30am 7.6 6.8 6.4 92 0.6 CALM 0 0 0 0 - - 0.0
25/05:00am 8.0 6.1 6.8 92 0.6 E 6 9 3 5 - - 0.0
25/04:30am 7.8 5.6 6.4 91 0.6 E 7 11 4 6 - - 0.0
25/04:00am 8.2 6.1 6.8 91 0.7 E 7 11 4 6 - - 0.0
25/03:30am 7.9 5.9 6.2 89 0.8 E 6 9 3 5 - - 0.0
25/03:00am 8.5 6.6 6.8 89 0.8 E 6 9 3 5 - - 0.0
25/02:30am 8.7 6.9 7.0 89 0.8 E 6 7 3 4 - - 0.0
25/02:00am 8.5 7.0 6.6 88 0.9 ENE 4 7 2 4 - - 0.0
25/01:30am 8.4 6.8 6.2 86 1.0 ESE 4 7 2 4 - - 0.0
25/01:00am 9.0 8.2 6.4 84 1.2 CALM 0 0 0 0 - - 0.0
25/12:30am 9.4 7.5 6.7 83 1.3 SE 6 9 3 5 - - 0.0
25/12:00am 10.0 7.9 6.5 79 1.7 SE 7 11 4 6 - - 0.0
 
Date/Time
WST
Temp
°C
App
Temp
°C
Dew
Point
Rel
Hum
%
Delta-T
°C
Wind Press
QNH
hPa
Press
MSL
hPa
Rain
since 9 am
mm
Dir
 
Spd
km/h
Gust
km/h
Spd
kts
Gust
kts
24/11:30pm 10.8 8.9 6.9 77 1.9 ESE 6 7 3 4 - - 0.0

Other Formats:

Comma delimited format used in spreadsheet applications
http://www.bom.gov.au/fwo/IDW60801/IDW60801.94631.axf

JavaScript Object Notation format (JSON) in row-major order
http://www.bom.gov.au/fwo/IDW60801/IDW60801.94631.json